sensor_id;sensor_type;location;lat;lon;timestamp;P1;durP1;ratioP1;P2;durP2;ratioP2
70727;SDS011;58314;47.722;17.652;2022-10-16T00:00:37;16.08;;;13.98;;
70727;SDS011;58314;47.722;17.652;2022-10-16T00:03:40;15.65;;;14.05;;
70727;SDS011;58314;47.722;17.652;2022-10-16T00:06:42;16.05;;;14.55;;
70727;SDS011;58314;47.722;17.652;2022-10-16T00:09:42;16.60;;;14.25;;
70727;SDS011;58314;47.722;17.652;2022-10-16T00:12:43;16.83;;;15.07;;
70727;SDS011;58314;47.722;17.652;2022-10-16T00:15:44;17.30;;;15.60;;
70727;SDS011;58314;47.722;17.652;2022-10-16T00:18:45;16.90;;;15.18;;
70727;SDS011;58314;47.722;17.652;2022-10-16T00:21:46;16.08;;;14.48;;
70727;SDS011;58314;47.722;17.652;2022-10-16T00:24:46;16.63;;;14.93;;
70727;SDS011;58314;47.722;17.652;2022-10-16T00:27:47;16.13;;;14.52;;
70727;SDS011;58314;47.722;17.652;2022-10-16T00:30:47;17.33;;;15.63;;
70727;SDS011;58314;47.722;17.652;2022-10-16T00:33:48;15.68;;;13.73;;
70727;SDS011;58314;47.722;17.652;2022-10-16T00:36:50;20.48;;;15.15;;
70727;SDS011;58314;47.722;17.652;2022-10-16T00:39:50;18.23;;;14.75;;
70727;SDS011;58314;47.722;17.652;2022-10-16T00:42:51;17.45;;;15.60;;
70727;SDS011;58314;47.722;17.652;2022-10-16T00:45:51;16.48;;;14.48;;
70727;SDS011;58314;47.722;17.652;2022-10-16T00:48:57;16.60;;;14.73;;
70727;SDS011;58314;47.722;17.652;2022-10-16T00:52:01;15.95;;;14.40;;
70727;SDS011;58314;47.722;17.652;2022-10-16T00:55:02;16.80;;;15.15;;
70727;SDS011;58314;47.722;17.652;2022-10-16T00:58:04;16.50;;;14.63;;
70727;SDS011;58314;47.722;17.652;2022-10-16T01:01:05;16.88;;;15.00;;
70727;SDS011;58314;47.722;17.652;2022-10-16T01:04:06;16.25;;;14.52;;
70727;SDS011;58314;47.722;17.652;2022-10-16T01:07:12;16.00;;;14.35;;
70727;SDS011;58314;47.722;17.652;2022-10-16T01:13:40;16.88;;;14.90;;
70727;SDS011;58314;47.722;17.652;2022-10-16T01:16:55;16.13;;;14.23;;
70727;SDS011;58314;47.722;17.652;2022-10-16T01:23:56;16.35;;;14.65;;
70727;SDS011;58314;47.722;17.652;2022-10-16T01:26:57;16.55;;;14.93;;
70727;SDS011;58314;47.722;17.652;2022-10-16T01:30:09;15.63;;;14.02;;
70727;SDS011;58314;47.722;17.652;2022-10-16T01:36:22;15.50;;;13.82;;
70727;SDS011;58314;47.722;17.652;2022-10-16T01:39:29;15.18;;;13.52;;
70727;SDS011;58314;47.722;17.652;2022-10-16T01:42:35;15.60;;;14.00;;
70727;SDS011;58314;47.722;17.652;2022-10-16T01:45:44;16.77;;;15.10;;
70727;SDS011;58314;47.722;17.652;2022-10-16T01:48:46;20.48;;;13.88;;
70727;SDS011;58314;47.722;17.652;2022-10-16T01:51:50;15.65;;;14.15;;
70727;SDS011;58314;47.722;17.652;2022-10-16T01:54:54;16.65;;;14.45;;
70727;SDS011;58314;47.722;17.652;2022-10-16T01:57:58;17.65;;;15.10;;
70727;SDS011;58314;47.722;17.652;2022-10-16T02:01:01;17.90;;;15.35;;
70727;SDS011;58314;47.722;17.652;2022-10-16T02:04:07;15.95;;;14.40;;
70727;SDS011;58314;47.722;17.652;2022-10-16T02:07:15;16.10;;;14.55;;
70727;SDS011;58314;47.722;17.652;2022-10-16T02:10:16;15.82;;;14.35;;
70727;SDS011;58314;47.722;17.652;2022-10-16T02:16:41;16.35;;;14.65;;
70727;SDS011;58314;47.722;17.652;2022-10-16T02:19:44;16.77;;;14.63;;
70727;SDS011;58314;47.722;17.652;2022-10-16T02:22:48;18.02;;;16.02;;
70727;SDS011;58314;47.722;17.652;2022-10-16T02:25:50;18.38;;;15.77;;
70727;SDS011;58314;47.722;17.652;2022-10-16T02:28:55;18.25;;;16.25;;
70727;SDS011;58314;47.722;17.652;2022-10-16T02:32:01;17.65;;;15.75;;
70727;SDS011;58314;47.722;17.652;2022-10-16T02:35:04;17.20;;;15.40;;
70727;SDS011;58314;47.722;17.652;2022-10-16T02:38:08;19.02;;;15.82;;
70727;SDS011;58314;47.722;17.652;2022-10-16T02:41:10;16.13;;;14.57;;
70727;SDS011;58314;47.722;17.652;2022-10-16T02:44:10;17.60;;;14.77;;
70727;SDS011;58314;47.722;17.652;2022-10-16T02:47:11;16.42;;;14.82;;
70727;SDS011;58314;47.722;17.652;2022-10-16T02:50:13;16.77;;;14.88;;
70727;SDS011;58314;47.722;17.652;2022-10-16T02:53:13;15.82;;;14.18;;
70727;SDS011;58314;47.722;17.652;2022-10-16T02:56:14;16.17;;;14.48;;
70727;SDS011;58314;47.722;17.652;2022-10-16T02:59:15;16.77;;;15.07;;
70727;SDS011;58314;47.722;17.652;2022-10-16T03:02:16;17.15;;;15.00;;
70727;SDS011;58314;47.722;17.652;2022-10-16T03:05:16;16.58;;;14.88;;
70727;SDS011;58314;47.722;17.652;2022-10-16T03:08:18;16.25;;;14.65;;
70727;SDS011;58314;47.722;17.652;2022-10-16T03:11:23;19.88;;;15.85;;
70727;SDS011;58314;47.722;17.652;2022-10-16T03:14:24;17.20;;;15.27;;
70727;SDS011;58314;47.722;17.652;2022-10-16T03:17:25;18.60;;;15.50;;
70727;SDS011;58314;47.722;17.652;2022-10-16T03:20:26;16.25;;;14.55;;
70727;SDS011;58314;47.722;17.652;2022-10-16T03:23:26;16.80;;;14.52;;
70727;SDS011;58314;47.722;17.652;2022-10-16T03:26:27;17.95;;;15.23;;
70727;SDS011;58314;47.722;17.652;2022-10-16T03:29:28;16.20;;;14.70;;
70727;SDS011;58314;47.722;17.652;2022-10-16T03:32:29;15.75;;;14.15;;
70727;SDS011;58314;47.722;17.652;2022-10-16T03:35:30;18.85;;;15.52;;
70727;SDS011;58314;47.722;17.652;2022-10-16T03:38:32;17.20;;;15.48;;
70727;SDS011;58314;47.722;17.652;2022-10-16T03:41:33;16.83;;;14.98;;
70727;SDS011;58314;47.722;17.652;2022-10-16T03:44:33;17.63;;;15.52;;
70727;SDS011;58314;47.722;17.652;2022-10-16T03:47:34;17.83;;;15.93;;
70727;SDS011;58314;47.722;17.652;2022-10-16T03:50:35;17.45;;;15.57;;
70727;SDS011;58314;47.722;17.652;2022-10-16T03:53:35;17.60;;;15.85;;
70727;SDS011;58314;47.722;17.652;2022-10-16T03:56:36;17.70;;;15.65;;
70727;SDS011;58314;47.722;17.652;2022-10-16T03:59:36;18.48;;;15.68;;
70727;SDS011;58314;47.722;17.652;2022-10-16T04:02:37;16.63;;;14.80;;
70727;SDS011;58314;47.722;17.652;2022-10-16T04:05:38;22.13;;;16.83;;
70727;SDS011;58314;47.722;17.652;2022-10-16T04:08:39;16.80;;;15.10;;
70727;SDS011;58314;47.722;17.652;2022-10-16T04:11:43;17.50;;;15.68;;
70727;SDS011;58314;47.722;17.652;2022-10-16T04:14:43;19.42;;;15.77;;
70727;SDS011;58314;47.722;17.652;2022-10-16T04:17:44;18.42;;;16.52;;
70727;SDS011;58314;47.722;17.652;2022-10-16T04:20:45;17.75;;;15.95;;
70727;SDS011;58314;47.722;17.652;2022-10-16T04:23:46;17.95;;;16.13;;
70727;SDS011;58314;47.722;17.652;2022-10-16T04:26:47;19.35;;;17.25;;
70727;SDS011;58314;47.722;17.652;2022-10-16T04:29:47;16.60;;;14.85;;
70727;SDS011;58314;47.722;17.652;2022-10-16T04:32:48;16.58;;;14.95;;
70727;SDS011;58314;47.722;17.652;2022-10-16T04:36:00;17.08;;;15.27;;
70727;SDS011;58314;47.722;17.652;2022-10-16T04:39:01;17.00;;;15.20;;
70727;SDS011;58314;47.722;17.652;2022-10-16T04:42:02;17.85;;;15.63;;
70727;SDS011;58314;47.722;17.652;2022-10-16T04:45:03;18.58;;;16.67;;
70727;SDS011;58314;47.722;17.652;2022-10-16T04:48:05;22.23;;;20.13;;
70727;SDS011;58314;47.722;17.652;2022-10-16T04:51:06;28.23;;;25.48;;
70727;SDS011;58314;47.722;17.652;2022-10-16T04:54:06;23.25;;;20.90;;
70727;SDS011;58314;47.722;17.652;2022-10-16T04:57:07;20.65;;;18.58;;
70727;SDS011;58314;47.722;17.652;2022-10-16T05:00:08;17.58;;;15.65;;
70727;SDS011;58314;47.722;17.652;2022-10-16T05:03:09;18.23;;;16.42;;
70727;SDS011;58314;47.722;17.652;2022-10-16T05:06:09;18.35;;;16.35;;
70727;SDS011;58314;47.722;17.652;2022-10-16T05:09:10;16.40;;;14.70;;
70727;SDS011;58314;47.722;17.652;2022-10-16T05:12:11;17.65;;;15.80;;
70727;SDS011;58314;47.722;17.652;2022-10-16T05:15:11;18.08;;;16.20;;
70727;SDS011;58314;47.722;17.652;2022-10-16T05:18:12;17.85;;;16.00;;
70727;SDS011;58314;47.722;17.652;2022-10-16T05:21:13;16.83;;;15.15;;
70727;SDS011;58314;47.722;17.652;2022-10-16T05:24:13;16.85;;;15.20;;
70727;SDS011;58314;47.722;17.652;2022-10-16T05:27:14;17.58;;;15.70;;
70727;SDS011;58314;47.722;17.652;2022-10-16T05:30:19;17.45;;;15.60;;
70727;SDS011;58314;47.722;17.652;2022-10-16T05:33:21;17.13;;;15.38;;
70727;SDS011;58314;47.722;17.652;2022-10-16T05:36:22;17.33;;;15.15;;
70727;SDS011;58314;47.722;17.652;2022-10-16T05:39:24;16.20;;;14.57;;
70727;SDS011;58314;47.722;17.652;2022-10-16T05:42:24;16.70;;;14.82;;
70727;SDS011;58314;47.722;17.652;2022-10-16T05:45:25;15.48;;;13.95;;
70727;SDS011;58314;47.722;17.652;2022-10-16T05:48:26;17.80;;;15.88;;
70727;SDS011;58314;47.722;17.652;2022-10-16T05:51:27;21.88;;;19.65;;
70727;SDS011;58314;47.722;17.652;2022-10-16T05:54:27;19.88;;;17.83;;
70727;SDS011;58314;47.722;17.652;2022-10-16T05:57:28;20.73;;;18.63;;
70727;SDS011;58314;47.722;17.652;2022-10-16T06:00:29;16.45;;;14.73;;
70727;SDS011;58314;47.722;17.652;2022-10-16T06:03:29;15.98;;;14.02;;
70727;SDS011;58314;47.722;17.652;2022-10-16T06:06:30;15.75;;;14.10;;
70727;SDS011;58314;47.722;17.652;2022-10-16T06:09:31;15.55;;;13.45;;
70727;SDS011;58314;47.722;17.652;2022-10-16T06:12:32;17.33;;;15.48;;
70727;SDS011;58314;47.722;17.652;2022-10-16T06:15:32;15.43;;;13.80;;
70727;SDS011;58314;47.722;17.652;2022-10-16T06:18:33;15.38;;;13.05;;
70727;SDS011;58314;47.722;17.652;2022-10-16T06:21:34;16.48;;;14.25;;
70727;SDS011;58314;47.722;17.652;2022-10-16T06:24:35;16.48;;;13.68;;
70727;SDS011;58314;47.722;17.652;2022-10-16T06:27:35;14.48;;;12.98;;
70727;SDS011;58314;47.722;17.652;2022-10-16T06:30:37;16.02;;;14.25;;
70727;SDS011;58314;47.722;17.652;2022-10-16T06:33:38;14.43;;;12.93;;
70727;SDS011;58314;47.722;17.652;2022-10-16T06:36:40;23.15;;;20.70;;
70727;SDS011;58314;47.722;17.652;2022-10-16T06:39:41;22.40;;;19.98;;
70727;SDS011;58314;47.722;17.652;2022-10-16T06:42:41;16.05;;;14.35;;
70727;SDS011;58314;47.722;17.652;2022-10-16T06:45:42;14.10;;;12.73;;
70727;SDS011;58314;47.722;17.652;2022-10-16T06:48:43;15.65;;;14.13;;
70727;SDS011;58314;47.722;17.652;2022-10-16T06:51:43;15.20;;;13.02;;
70727;SDS011;58314;47.722;17.652;2022-10-16T06:54:44;14.77;;;13.27;;
70727;SDS011;58314;47.722;17.652;2022-10-16T06:57:46;18.33;;;14.85;;
70727;SDS011;58314;47.722;17.652;2022-10-16T07:00:47;15.27;;;13.85;;
70727;SDS011;58314;47.722;17.652;2022-10-16T07:03:48;15.20;;;13.48;;
70727;SDS011;58314;47.722;17.652;2022-10-16T07:06:49;15.27;;;13.70;;
70727;SDS011;58314;47.722;17.652;2022-10-16T07:09:52;16.30;;;13.98;;
70727;SDS011;58314;47.722;17.652;2022-10-16T07:12:52;14.32;;;12.82;;
70727;SDS011;58314;47.722;17.652;2022-10-16T07:15:53;15.45;;;13.55;;
70727;SDS011;58314;47.722;17.652;2022-10-16T07:18:54;15.80;;;14.18;;
70727;SDS011;58314;47.722;17.652;2022-10-16T07:21:58;14.80;;;13.35;;
70727;SDS011;58314;47.722;17.652;2022-10-16T07:24:59;15.63;;;14.02;;
70727;SDS011;58314;47.722;17.652;2022-10-16T07:28:00;16.30;;;14.65;;
70727;SDS011;58314;47.722;17.652;2022-10-16T07:31:04;26.67;;;23.90;;
70727;SDS011;58314;47.722;17.652;2022-10-16T07:34:11;22.73;;;20.35;;
70727;SDS011;58314;47.722;17.652;2022-10-16T07:37:13;20.13;;;16.05;;
70727;SDS011;58314;47.722;17.652;2022-10-16T07:40:15;15.90;;;14.38;;
70727;SDS011;58314;47.722;17.652;2022-10-16T07:43:15;17.85;;;14.43;;
70727;SDS011;58314;47.722;17.652;2022-10-16T07:46:17;16.88;;;15.00;;
70727;SDS011;58314;47.722;17.652;2022-10-16T07:49:20;16.40;;;13.73;;
70727;SDS011;58314;47.722;17.652;2022-10-16T07:52:21;18.63;;;16.20;;
70727;SDS011;58314;47.722;17.652;2022-10-16T07:55:22;16.83;;;15.23;;
70727;SDS011;58314;47.722;17.652;2022-10-16T07:58:22;14.65;;;13.20;;
70727;SDS011;58314;47.722;17.652;2022-10-16T08:01:23;15.70;;;13.88;;
70727;SDS011;58314;47.722;17.652;2022-10-16T08:04:23;15.57;;;13.98;;
70727;SDS011;58314;47.722;17.652;2022-10-16T08:07:24;15.63;;;14.13;;
70727;SDS011;58314;47.722;17.652;2022-10-16T08:10:26;17.75;;;15.38;;
70727;SDS011;58314;47.722;17.652;2022-10-16T08:13:27;16.48;;;14.75;;
70727;SDS011;58314;47.722;17.652;2022-10-16T08:16:28;17.55;;;15.73;;
70727;SDS011;58314;47.722;17.652;2022-10-16T08:19:29;16.65;;;14.60;;
70727;SDS011;58314;47.722;17.652;2022-10-16T08:22:31;18.67;;;14.63;;
70727;SDS011;58314;47.722;17.652;2022-10-16T08:25:34;17.40;;;15.05;;
70727;SDS011;58314;47.722;17.652;2022-10-16T08:28:37;17.58;;;15.10;;
70727;SDS011;58314;47.722;17.652;2022-10-16T08:31:38;16.65;;;14.75;;
70727;SDS011;58314;47.722;17.652;2022-10-16T08:34:38;15.88;;;14.27;;
70727;SDS011;58314;47.722;17.652;2022-10-16T08:37:39;16.67;;;14.75;;
70727;SDS011;58314;47.722;17.652;2022-10-16T08:40:41;15.93;;;14.35;;
70727;SDS011;58314;47.722;17.652;2022-10-16T08:43:55;16.88;;;15.02;;
70727;SDS011;58314;47.722;17.652;2022-10-16T08:50:27;17.02;;;14.70;;
70727;SDS011;58314;47.722;17.652;2022-10-16T08:53:31;16.48;;;13.68;;
70727;SDS011;58314;47.722;17.652;2022-10-16T08:56:57;17.92;;;15.55;;
70727;SDS011;58314;47.722;17.652;2022-10-16T09:00:13;20.33;;;16.38;;
70727;SDS011;58314;47.722;17.652;2022-10-16T09:06:33;17.87;;;15.97;;
70727;SDS011;58314;47.722;17.652;2022-10-16T09:16:52;19.38;;;17.38;;
70727;SDS011;58314;47.722;17.652;2022-10-16T09:23:27;19.80;;;17.88;;
70727;SDS011;58314;47.722;17.652;2022-10-16T09:26:30;27.75;;;23.33;;
70727;SDS011;58314;47.722;17.652;2022-10-16T09:29:31;23.92;;;21.33;;
70727;SDS011;58314;47.722;17.652;2022-10-16T09:32:31;23.27;;;20.88;;
70727;SDS011;58314;47.722;17.652;2022-10-16T09:35:40;21.35;;;19.20;;
70727;SDS011;58314;47.722;17.652;2022-10-16T09:38:43;18.67;;;16.77;;
70727;SDS011;58314;47.722;17.652;2022-10-16T09:41:44;22.17;;;19.88;;
70727;SDS011;58314;47.722;17.652;2022-10-16T09:44:49;19.75;;;17.75;;
70727;SDS011;58314;47.722;17.652;2022-10-16T09:47:52;25.33;;;20.67;;
70727;SDS011;58314;47.722;17.652;2022-10-16T09:51:01;19.65;;;17.75;;
70727;SDS011;58314;47.722;17.652;2022-10-16T09:54:14;19.52;;;17.63;;
70727;SDS011;58314;47.722;17.652;2022-10-16T09:57:16;21.48;;;18.70;;
70727;SDS011;58314;47.722;17.652;2022-10-16T10:00:17;19.83;;;17.73;;
70727;SDS011;58314;47.722;17.652;2022-10-16T10:06:43;20.52;;;18.52;;
70727;SDS011;58314;47.722;17.652;2022-10-16T10:09:47;21.58;;;19.27;;
70727;SDS011;58314;47.722;17.652;2022-10-16T10:12:47;21.67;;;19.38;;
70727;SDS011;58314;47.722;17.652;2022-10-16T10:15:48;20.30;;;18.17;;
70727;SDS011;58314;47.722;17.652;2022-10-16T10:18:57;20.30;;;18.30;;
70727;SDS011;58314;47.722;17.652;2022-10-16T10:21:58;18.77;;;16.85;;
70727;SDS011;58314;47.722;17.652;2022-10-16T10:31:30;17.10;;;14.23;;
70727;SDS011;58314;47.722;17.652;2022-10-16T10:34:45;15.02;;;13.45;;
70727;SDS011;58314;47.722;17.652;2022-10-16T10:44:57;14.18;;;12.70;;
70727;SDS011;58314;47.722;17.652;2022-10-16T10:51:42;12.70;;;11.60;;
70727;SDS011;58314;47.722;17.652;2022-10-16T10:54:51;13.52;;;12.15;;
70727;SDS011;58314;47.722;17.652;2022-10-16T11:01:44;13.40;;;12.00;;
70727;SDS011;58314;47.722;17.652;2022-10-16T11:08:26;12.90;;;11.60;;
70727;SDS011;58314;47.722;17.652;2022-10-16T11:11:41;12.68;;;11.48;;
70727;SDS011;58314;47.722;17.652;2022-10-16T11:14:56;12.48;;;11.15;;
70727;SDS011;58314;47.722;17.652;2022-10-16T11:18:03;11.65;;;10.55;;
70727;SDS011;58314;47.722;17.652;2022-10-16T11:21:09;11.38;;;10.27;;
70727;SDS011;58314;47.722;17.652;2022-10-16T11:27:25;12.82;;;11.63;;
70727;SDS011;58314;47.722;17.652;2022-10-16T11:30:44;13.13;;;11.80;;
70727;SDS011;58314;47.722;17.652;2022-10-16T11:36:53;16.83;;;15.10;;
70727;SDS011;58314;47.722;17.652;2022-10-16T11:40:03;13.93;;;12.60;;
70727;SDS011;58314;47.722;17.652;2022-10-16T11:43:25;12.85;;;11.50;;
70727;SDS011;58314;47.722;17.652;2022-10-16T11:46:32;11.93;;;10.30;;
70727;SDS011;58314;47.722;17.652;2022-10-16T11:49:37;11.73;;;10.63;;
70727;SDS011;58314;47.722;17.652;2022-10-16T11:52:41;11.57;;;10.48;;
70727;SDS011;58314;47.722;17.652;2022-10-16T11:55:48;13.43;;;11.45;;
70727;SDS011;58314;47.722;17.652;2022-10-16T11:59:02;12.43;;;10.85;;
70727;SDS011;58314;47.722;17.652;2022-10-16T12:06:10;12.90;;;11.60;;
70727;SDS011;58314;47.722;17.652;2022-10-16T12:09:28;13.38;;;12.07;;
70727;SDS011;58314;47.722;17.652;2022-10-16T12:15:35;13.88;;;11.88;;
70727;SDS011;58314;47.722;17.652;2022-10-16T12:18:36;12.93;;;11.57;;
70727;SDS011;58314;47.722;17.652;2022-10-16T12:21:36;12.70;;;11.50;;
70727;SDS011;58314;47.722;17.652;2022-10-16T12:24:42;13.60;;;12.30;;
70727;SDS011;58314;47.722;17.652;2022-10-16T12:27:43;14.68;;;13.27;;
70727;SDS011;58314;47.722;17.652;2022-10-16T12:30:51;21.92;;;19.98;;
70727;SDS011;58314;47.722;17.652;2022-10-16T12:34:01;16.98;;;15.23;;
70727;SDS011;58314;47.722;17.652;2022-10-16T12:37:23;25.33;;;23.23;;
70727;SDS011;58314;47.722;17.652;2022-10-16T12:40:28;16.08;;;14.57;;
70727;SDS011;58314;47.722;17.652;2022-10-16T12:43:44;14.60;;;13.30;;
70727;SDS011;58314;47.722;17.652;2022-10-16T12:46:46;14.43;;;13.13;;
70727;SDS011;58314;47.722;17.652;2022-10-16T12:49:51;15.82;;;14.32;;
70727;SDS011;58314;47.722;17.652;2022-10-16T12:52:57;16.02;;;14.50;;
70727;SDS011;58314;47.722;17.652;2022-10-16T13:19:24;15.25;;;13.75;;
70727;SDS011;58314;47.722;17.652;2022-10-16T13:22:35;15.88;;;14.23;;
70727;SDS011;58314;47.722;17.652;2022-10-16T13:29:13;32.55;;;29.17;;
70727;SDS011;58314;47.722;17.652;2022-10-16T13:32:14;18.85;;;17.02;;
70727;SDS011;58314;47.722;17.652;2022-10-16T13:35:22;15.02;;;13.48;;
70727;SDS011;58314;47.722;17.652;2022-10-16T13:38:28;15.88;;;12.95;;
70727;SDS011;58314;47.722;17.652;2022-10-16T13:41:35;14.70;;;12.93;;
70727;SDS011;58314;47.722;17.652;2022-10-16T13:44:42;14.95;;;13.45;;
70727;SDS011;58314;47.722;17.652;2022-10-16T13:47:47;14.02;;;12.27;;
70727;SDS011;58314;47.722;17.652;2022-10-16T13:50:58;14.82;;;13.43;;
70727;SDS011;58314;47.722;17.652;2022-10-16T13:54:21;15.23;;;13.13;;
70727;SDS011;58314;47.722;17.652;2022-10-16T13:57:23;15.13;;;13.60;;
70727;SDS011;58314;47.722;17.652;2022-10-16T14:00:27;16.33;;;14.68;;
70727;SDS011;58314;47.722;17.652;2022-10-16T14:03:32;16.02;;;14.02;;
70727;SDS011;58314;47.722;17.652;2022-10-16T14:06:36;14.75;;;13.35;;
70727;SDS011;58314;47.722;17.652;2022-10-16T14:09:40;14.80;;;13.30;;
70727;SDS011;58314;47.722;17.652;2022-10-16T14:12:41;16.75;;;15.05;;
70727;SDS011;58314;47.722;17.652;2022-10-16T14:15:45;17.42;;;15.75;;
70727;SDS011;58314;47.722;17.652;2022-10-16T14:18:55;16.50;;;14.90;;
70727;SDS011;58314;47.722;17.652;2022-10-16T14:21:56;17.02;;;15.43;;
70727;SDS011;58314;47.722;17.652;2022-10-16T14:25:00;17.25;;;15.57;;
70727;SDS011;58314;47.722;17.652;2022-10-16T14:34:23;16.65;;;14.85;;
70727;SDS011;58314;47.722;17.652;2022-10-16T14:37:28;16.88;;;14.65;;
70727;SDS011;58314;47.722;17.652;2022-10-16T14:40:30;16.30;;;14.73;;
70727;SDS011;58314;47.722;17.652;2022-10-16T14:43:36;15.73;;;14.13;;
70727;SDS011;58314;47.722;17.652;2022-10-16T14:46:41;16.27;;;14.63;;
70727;SDS011;58314;47.722;17.652;2022-10-16T14:49:44;17.20;;;15.23;;
70727;SDS011;58314;47.722;17.652;2022-10-16T14:52:45;19.85;;;16.45;;
70727;SDS011;58314;47.722;17.652;2022-10-16T14:55:45;29.73;;;24.98;;
70727;SDS011;58314;47.722;17.652;2022-10-16T14:58:49;18.42;;;16.45;;
70727;SDS011;58314;47.722;17.652;2022-10-16T15:01:51;16.85;;;15.15;;
70727;SDS011;58314;47.722;17.652;2022-10-16T15:04:52;15.95;;;14.45;;
70727;SDS011;58314;47.722;17.652;2022-10-16T15:07:55;16.48;;;14.90;;
70727;SDS011;58314;47.722;17.652;2022-10-16T15:10:56;15.20;;;13.80;;
70727;SDS011;58314;47.722;17.652;2022-10-16T15:13:57;15.77;;;14.20;;
70727;SDS011;58314;47.722;17.652;2022-10-16T15:16:58;15.82;;;14.23;;
70727;SDS011;58314;47.722;17.652;2022-10-16T15:19:58;18.08;;;16.38;;
70727;SDS011;58314;47.722;17.652;2022-10-16T15:23:03;15.85;;;14.25;;
70727;SDS011;58314;47.722;17.652;2022-10-16T15:26:07;17.25;;;15.30;;
70727;SDS011;58314;47.722;17.652;2022-10-16T15:29:09;16.90;;;15.25;;
70727;SDS011;58314;47.722;17.652;2022-10-16T15:32:10;22.90;;;18.75;;
70727;SDS011;58314;47.722;17.652;2022-10-16T15:35:11;26.15;;;20.25;;
70727;SDS011;58314;47.722;17.652;2022-10-16T15:38:12;19.75;;;17.52;;
70727;SDS011;58314;47.722;17.652;2022-10-16T15:41:13;18.13;;;16.33;;
70727;SDS011;58314;47.722;17.652;2022-10-16T15:44:14;23.00;;;18.92;;
70727;SDS011;58314;47.722;17.652;2022-10-16T15:47:15;17.42;;;15.73;;
70727;SDS011;58314;47.722;17.652;2022-10-16T15:50:18;17.30;;;15.50;;
70727;SDS011;58314;47.722;17.652;2022-10-16T15:53:18;18.60;;;16.00;;
70727;SDS011;58314;47.722;17.652;2022-10-16T15:56:19;16.90;;;15.30;;
70727;SDS011;58314;47.722;17.652;2022-10-16T15:59:20;17.23;;;15.25;;
70727;SDS011;58314;47.722;17.652;2022-10-16T16:02:20;20.83;;;17.13;;
70727;SDS011;58314;47.722;17.652;2022-10-16T16:05:21;19.75;;;16.98;;
70727;SDS011;58314;47.722;17.652;2022-10-16T16:08:23;19.00;;;16.98;;
70727;SDS011;58314;47.722;17.652;2022-10-16T16:11:24;22.52;;;18.05;;
70727;SDS011;58314;47.722;17.652;2022-10-16T16:14:24;18.98;;;17.17;;
70727;SDS011;58314;47.722;17.652;2022-10-16T16:17:26;18.38;;;16.58;;
70727;SDS011;58314;47.722;17.652;2022-10-16T16:20:27;19.33;;;17.33;;
70727;SDS011;58314;47.722;17.652;2022-10-16T16:23:27;24.92;;;22.50;;
70727;SDS011;58314;47.722;17.652;2022-10-16T16:26:29;24.02;;;21.48;;
70727;SDS011;58314;47.722;17.652;2022-10-16T16:29:35;22.88;;;20.38;;
70727;SDS011;58314;47.722;17.652;2022-10-16T16:32:36;23.85;;;21.25;;
70727;SDS011;58314;47.722;17.652;2022-10-16T16:35:36;25.45;;;22.77;;
70727;SDS011;58314;47.722;17.652;2022-10-16T16:38:37;25.13;;;21.33;;
70727;SDS011;58314;47.722;17.652;2022-10-16T16:41:38;24.08;;;21.40;;
70727;SDS011;58314;47.722;17.652;2022-10-16T16:44:38;24.00;;;21.48;;
70727;SDS011;58314;47.722;17.652;2022-10-16T16:47:39;19.55;;;17.55;;
70727;SDS011;58314;47.722;17.652;2022-10-16T16:50:40;20.83;;;18.45;;
70727;SDS011;58314;47.722;17.652;2022-10-16T16:53:44;19.30;;;17.30;;
70727;SDS011;58314;47.722;17.652;2022-10-16T16:56:46;24.30;;;18.13;;
70727;SDS011;58314;47.722;17.652;2022-10-16T16:59:49;20.02;;;17.60;;
70727;SDS011;58314;47.722;17.652;2022-10-16T17:02:51;18.80;;;16.50;;
70727;SDS011;58314;47.722;17.652;2022-10-16T17:05:58;18.23;;;16.38;;
70727;SDS011;58314;47.722;17.652;2022-10-16T17:09:00;21.55;;;17.42;;
70727;SDS011;58314;47.722;17.652;2022-10-16T17:12:03;19.70;;;17.60;;
70727;SDS011;58314;47.722;17.652;2022-10-16T17:15:03;20.05;;;18.15;;
70727;SDS011;58314;47.722;17.652;2022-10-16T17:18:04;21.63;;;18.55;;
70727;SDS011;58314;47.722;17.652;2022-10-16T17:21:06;18.38;;;16.55;;
70727;SDS011;58314;47.722;17.652;2022-10-16T17:24:07;17.48;;;15.68;;
70727;SDS011;58314;47.722;17.652;2022-10-16T17:27:08;20.25;;;18.10;;
70727;SDS011;58314;47.722;17.652;2022-10-16T17:30:11;18.40;;;16.40;;
70727;SDS011;58314;47.722;17.652;2022-10-16T17:33:12;16.55;;;14.88;;
70727;SDS011;58314;47.722;17.652;2022-10-16T17:36:13;17.77;;;14.93;;
70727;SDS011;58314;47.722;17.652;2022-10-16T17:39:15;16.80;;;14.40;;
70727;SDS011;58314;47.722;17.652;2022-10-16T17:42:17;15.43;;;13.60;;
70727;SDS011;58314;47.722;17.652;2022-10-16T17:45:17;14.68;;;13.15;;
70727;SDS011;58314;47.722;17.652;2022-10-16T17:48:18;15.68;;;14.02;;
70727;SDS011;58314;47.722;17.652;2022-10-16T17:51:20;16.55;;;14.93;;
70727;SDS011;58314;47.722;17.652;2022-10-16T17:54:22;14.43;;;12.93;;
70727;SDS011;58314;47.722;17.652;2022-10-16T17:57:23;15.32;;;12.95;;
70727;SDS011;58314;47.722;17.652;2022-10-16T18:00:24;13.18;;;11.88;;
70727;SDS011;58314;47.722;17.652;2022-10-16T18:03:25;14.02;;;11.13;;
70727;SDS011;58314;47.722;17.652;2022-10-16T18:06:26;12.30;;;11.00;;
70727;SDS011;58314;47.722;17.652;2022-10-16T18:09:28;12.25;;;10.95;;
70727;SDS011;58314;47.722;17.652;2022-10-16T18:12:29;12.52;;;10.82;;
70727;SDS011;58314;47.722;17.652;2022-10-16T18:15:30;12.38;;;10.45;;
70727;SDS011;58314;47.722;17.652;2022-10-16T18:18:31;15.80;;;14.30;;
70727;SDS011;58314;47.722;17.652;2022-10-16T18:21:31;15.23;;;11.93;;
70727;SDS011;58314;47.722;17.652;2022-10-16T18:24:32;16.52;;;12.05;;
70727;SDS011;58314;47.722;17.652;2022-10-16T18:27:33;13.70;;;12.25;;
70727;SDS011;58314;47.722;17.652;2022-10-16T18:30:34;12.95;;;11.57;;
70727;SDS011;58314;47.722;17.652;2022-10-16T18:33:34;13.82;;;12.43;;
70727;SDS011;58314;47.722;17.652;2022-10-16T18:36:35;13.45;;;12.05;;
70727;SDS011;58314;47.722;17.652;2022-10-16T18:39:36;15.77;;;12.38;;
70727;SDS011;58314;47.722;17.652;2022-10-16T18:42:36;14.57;;;12.73;;
70727;SDS011;58314;47.722;17.652;2022-10-16T18:45:37;14.80;;;12.80;;
70727;SDS011;58314;47.722;17.652;2022-10-16T18:48:38;14.88;;;12.85;;
70727;SDS011;58314;47.722;17.652;2022-10-16T18:51:39;15.93;;;12.70;;
70727;SDS011;58314;47.722;17.652;2022-10-16T18:54:41;15.88;;;12.93;;
70727;SDS011;58314;47.722;17.652;2022-10-16T18:57:42;15.80;;;13.52;;
70727;SDS011;58314;47.722;17.652;2022-10-16T19:00:42;14.85;;;12.90;;
70727;SDS011;58314;47.722;17.652;2022-10-16T19:03:43;18.25;;;16.33;;
70727;SDS011;58314;47.722;17.652;2022-10-16T19:06:45;21.25;;;19.10;;
70727;SDS011;58314;47.722;17.652;2022-10-16T19:09:48;16.77;;;15.07;;
70727;SDS011;58314;47.722;17.652;2022-10-16T19:12:49;16.92;;;13.68;;
70727;SDS011;58314;47.722;17.652;2022-10-16T19:15:50;15.18;;;12.90;;
70727;SDS011;58314;47.722;17.652;2022-10-16T19:18:52;15.00;;;13.50;;